Impacts TAF Board
For situational awareness. Not to be used for flight planning purposes.
IDs:

KTPA - Tampa Intl Arpt, FL, US

Issued at 1130 UTC 21 Sep 2018
Updated at 1221 UTC 21 Sep 2018
Potential Impact None Slight Moderate High
Time1153Z 21/13Z 21/14Z 21/15Z 21/16Z 21/17Z 21/18Z 21/19Z 21/20Z 21/21Z 21/22Z 21/23Z 22/00Z 22/01Z>>
Type OBS PRVL PRVL PRVL PRVL PRVL PRVL PRVL PRVL PRVL PRVL PRVL PRVL PRVL
VIS 10 >6 >6 >6 >6 >6 >6 >6 >6 >6 >6 >6 >6 >6
CIG -- -- -- -- -- -- 250 250 250 250 250 250 250 --
Cover FEW SCT SCT SCT SCT SCT BKN BKN BKN BKN BKN BKN BKN SCT
FltCat VFR VFR VFR VFR VFR VFR VFR VFR VFR VFR VFR VFR VFR VFR
WX -- -- -- -- -- -- VCTS VCTS VCTS VCTS VCTS VCTS VCTS --
WDir 30 60 60 60 60 60 240 240 240 240 240 240 240 VRB
WSpd 4 5 5 5 5 5 7 7 7 7 7 7 7 3
WGst -- -- -- -- -- -- -- -- -- -- -- -- -- --
Raw TAF
KTPA 211130Z 2112/2218 06005KT P6SM FEW030 SCT250
  FM211800 24007KT P6SM VCTS SCT035CB BKN250
  FM220100 VRB03KT P6SM FEW035 SCT250
  FM221300 07005KT P6SM FEW030 SCT250


Raw METAR
KTPA 211153Z 03004KT 10SM FEW020 FEW220 26/23 A3007 RMK AO2 SLP180 CB DSNT S 70174 T02560233 10261 20256 53004
KTPA 211053Z 00000KT 10SM FEW035 SCT080 SCT220 26/23 A3006 RMK AO2 SLP178 FRQ LTGICCA DSNT S CB DSNT S T02560228
KTPA 210953Z 05003KT 10SM CLR 26/23 A3005 RMK AO2 SLP175 T02560228

METAR Board
Radar Display
Forecast Discussion
For situational awareness. Not to be used for flight planning purposes.